PATK/TKA METAR and TAF weather

Enter ICAO airport designator
Station Type Date Time Source
PATK METAR 2023/01/30 11:09 UTC NOAA

PATK 301109Z AUTO 35004KT 10SM UP SCT029 OVC036 00/M01 A3015 RMK AO2 RAE04UPB04 P0000 T00001011 TSNO


Station Type Date Time Source
PATK Decoded METAR 2023/01/30 11:09 UTC NOAA

TALKEETNA AIRPORT, AK, United States (PATK) 62-19N 150-06W 109M
Jan 30, 2023 - 06:09 AM EST / 2023.01.30 1109 UTC
Wind: from the N (350 degrees) at 5 MPH (4 KT):0
Visibility: 10 mile(s):0
Sky conditions: overcast
Weather: precipitation
Precipitation last hour: A trace
Temperature: 32.0 F (0.0 C)
Windchill: 26 F (-3 C):1
Dew Point: 30.0 F (-1.1 C)
Relative Humidity: 92%
Pressure (altimeter): 30.15 in. Hg (1020 hPa)
ob: PATK 301109Z AUTO 35004KT 10SM UP SCT029 OVC036 00/M01 A3015 RMK AO2 RAE04UPB04 P0000 T00001011 TSNO
cycle: 11

Station Type Date Time Source
PATK TAF 2023/01/30 10:52 UTC NOAA

TAF
AMD PATK 300950Z 3010/3106 36003KT P6SM -SHSN OVC035
TEMPO 3010/3012 4SM -SN BR OVC015
FM301200 VRB04KT 4SM -SHSN VCSH OVC015
FM301800 VRB02KT P6SM SCT015 BKN035

Example: see airport list